createdAt,value
2023-06-17T00:00:28.404Z,17.20
2023-06-17T00:03:49.933Z,17.20
2023-06-17T00:07:11.407Z,17.10
2023-06-17T00:10:32.806Z,17.10
2023-06-17T00:13:55.672Z,17.20
2023-06-17T00:17:17.113Z,17.20
2023-06-17T00:20:38.699Z,17.20
2023-06-17T00:23:59.901Z,17.30
2023-06-17T00:27:21.142Z,17.20
2023-06-17T00:30:46.543Z,17.30
2023-06-17T00:34:07.788Z,17.40
2023-06-17T00:37:29.065Z,17.40
2023-06-17T00:40:50.574Z,17.30
2023-06-17T00:44:11.888Z,17.40
2023-06-17T00:47:34.711Z,17.40
2023-06-17T00:51:02.735Z,17.30
2023-06-17T00:54:25.267Z,17.20
2023-06-17T00:57:48.845Z,17.30
2023-06-17T01:01:10.633Z,17.20
2023-06-17T01:04:34.162Z,17.30
2023-06-17T01:08:11.234Z,17.30
2023-06-17T01:11:33.257Z,17.30
2023-06-17T01:14:58.338Z,17.20
2023-06-17T01:18:21.225Z,17.10
2023-06-17T01:21:44.450Z,17.20
2023-06-17T01:25:09.912Z,17.30
2023-06-17T01:28:31.848Z,17.30
2023-06-17T01:31:57.677Z,17.20
2023-06-17T01:35:19.258Z,17.20
2023-06-17T01:38:44.773Z,17.20
2023-06-17T01:42:12.246Z,17.30
2023-06-17T01:45:34.365Z,17.30
2023-06-17T01:48:56.704Z,17.30
2023-06-17T01:52:18.367Z,17.20
2023-06-17T01:55:40.428Z,17.10
2023-06-17T01:59:03.046Z,17.10
2023-06-17T02:02:24.828Z,17.00
2023-06-17T02:05:46.848Z,17.00
2023-06-17T02:09:08.342Z,16.90
2023-06-17T02:12:29.733Z,17.00
2023-06-17T02:15:52.571Z,17.00
2023-06-17T02:19:15.854Z,17.10
2023-06-17T02:22:37.976Z,17.10
2023-06-17T02:25:59.658Z,17.10
2023-06-17T02:29:21.238Z,17.20
2023-06-17T02:32:44.219Z,17.10
2023-06-17T02:36:06.211Z,17.10
2023-06-17T02:39:27.644Z,17.20
2023-06-17T02:42:48.911Z,17.20
2023-06-17T02:46:10.513Z,17.20
2023-06-17T02:49:33.217Z,17.10
2023-06-17T02:52:56.869Z,17.10
2023-06-17T02:56:18.659Z,17.10
2023-06-17T02:59:39.899Z,17.00
2023-06-17T03:03:01.513Z,17.10
2023-06-17T03:06:25.022Z,17.10
2023-06-17T03:09:46.929Z,17.10
2023-06-17T03:13:08.548Z,17.20
2023-06-17T03:16:32.698Z,17.10
2023-06-17T03:19:55.472Z,17.10
2023-06-17T03:23:18.874Z,17.10
2023-06-17T03:26:40.241Z,17.10
2023-06-17T03:30:02.295Z,17.10
2023-06-17T03:33:23.595Z,17.20
2023-06-17T03:36:48.574Z,17.20
2023-06-17T03:40:14.686Z,17.10
2023-06-17T03:43:36.274Z,17.10
2023-06-17T03:46:59.257Z,17.00
2023-06-17T03:50:21.043Z,17.10
2023-06-17T03:53:42.694Z,17.00
2023-06-17T03:57:05.959Z,17.10
2023-06-17T04:00:27.876Z,17.20
2023-06-17T04:03:50.099Z,17.30
2023-06-17T04:07:11.958Z,17.30
2023-06-17T04:10:33.468Z,17.30
2023-06-17T04:13:56.217Z,17.20
2023-06-17T04:17:19.050Z,17.30
2023-06-17T04:20:41.295Z,17.30
2023-06-17T04:24:02.954Z,17.30
2023-06-17T04:27:24.465Z,17.30
2023-06-17T04:30:47.622Z,17.40
2023-06-17T04:34:08.836Z,17.50
2023-06-17T04:37:30.193Z,17.50
2023-06-17T04:40:53.805Z,17.50
2023-06-17T04:44:15.420Z,17.50
2023-06-17T04:47:38.658Z,17.60
2023-06-17T04:51:00.857Z,17.50
2023-06-17T04:54:25.670Z,17.60
2023-06-17T04:57:47.456Z,17.70
2023-06-17T05:01:11.643Z,17.70
2023-06-17T05:04:34.538Z,17.80
2023-06-17T05:07:56.298Z,17.80
2023-06-17T05:11:17.655Z,17.70
2023-06-17T05:14:38.956Z,17.80
2023-06-17T05:18:00.344Z,17.90
2023-06-17T05:21:24.674Z,17.90
2023-06-17T05:24:46.195Z,17.90
2023-06-17T05:28:08.277Z,17.90
2023-06-17T05:31:29.351Z,17.90
2023-06-17T05:34:50.997Z,17.90
2023-06-17T05:38:13.815Z,17.90
2023-06-17T05:41:35.094Z,17.90
2023-06-17T05:44:56.641Z,17.90
2023-06-17T05:48:18.014Z,17.90
2023-06-17T05:51:39.761Z,17.90
2023-06-17T05:55:02.299Z,17.90
2023-06-17T05:58:24.009Z,17.80
2023-06-17T06:01:45.502Z,17.80
2023-06-17T06:05:07.758Z,17.80
2023-06-17T06:08:29.247Z,17.90
2023-06-17T06:11:51.749Z,18.00
2023-06-17T06:15:12.952Z,18.00
2023-06-17T06:18:34.533Z,18.10
2023-06-17T06:21:56.510Z,18.20
2023-06-17T06:25:17.856Z,18.20
2023-06-17T06:28:40.611Z,18.10
2023-06-17T06:32:01.980Z,18.30
2023-06-17T06:35:23.499Z,18.30
2023-06-17T06:38:44.973Z,18.20
2023-06-17T06:42:07.183Z,18.20
2023-06-17T06:45:30.609Z,18.30
2023-06-17T06:48:51.863Z,18.30
2023-06-17T06:52:13.149Z,18.50
2023-06-17T06:55:34.580Z,18.50
2023-06-17T06:58:57.523Z,18.40
2023-06-17T07:02:20.523Z,18.50
2023-06-17T07:05:42.189Z,18.60
2023-06-17T07:09:03.599Z,18.70
2023-06-17T07:12:25.019Z,18.70
2023-06-17T07:15:46.606Z,18.80
2023-06-17T07:19:09.596Z,18.80
2023-06-17T07:22:31.090Z,18.80
2023-06-17T07:25:54.332Z,18.90
2023-06-17T07:29:17.653Z,19.00
2023-06-17T07:32:39.364Z,19.00
2023-06-17T07:36:01.891Z,19.10
2023-06-17T07:39:24.979Z,19.10
2023-06-17T07:42:46.570Z,19.20
2023-06-17T07:46:08.508Z,19.30
2023-06-17T07:49:30.951Z,19.30
2023-06-17T07:52:54.106Z,19.30
2023-06-17T07:56:15.608Z,19.40
2023-06-17T07:59:37.510Z,19.50
2023-06-17T08:02:58.822Z,19.60
2023-06-17T08:06:20.936Z,19.60
2023-06-17T08:09:43.608Z,19.60
2023-06-17T08:13:05.070Z,19.70
2023-06-17T08:16:26.495Z,19.70
2023-06-17T08:19:48.345Z,19.80
2023-06-17T08:23:09.929Z,19.80
2023-06-17T08:26:32.506Z,20.00
2023-06-17T08:29:53.741Z,20.10
2023-06-17T08:33:15.191Z,20.10
2023-06-17T08:36:38.464Z,20.20
2023-06-17T08:39:59.800Z,20.20
2023-06-17T08:43:23.333Z,20.30
2023-06-17T08:46:45.751Z,20.40
2023-06-17T08:50:08.786Z,20.50
2023-06-17T08:53:32.087Z,20.70
2023-06-17T08:56:54.907Z,20.90
2023-06-17T09:00:18.814Z,21.00
2023-06-17T09:03:42.340Z,21.00
2023-06-17T09:07:03.760Z,21.10
2023-06-17T09:10:25.075Z,21.20
2023-06-17T09:13:51.512Z,21.30
2023-06-17T09:17:29.870Z,21.60
2023-06-17T09:20:52.965Z,21.60
2023-06-17T09:24:14.505Z,21.70
2023-06-17T09:27:36.211Z,21.80
2023-06-17T09:31:00.654Z,22.00
2023-06-17T09:34:25.755Z,22.20
2023-06-17T09:38:02.588Z,22.20
2023-06-17T09:41:26.165Z,22.20
2023-06-17T09:44:48.567Z,22.20
2023-06-17T09:48:11.122Z,22.00
2023-06-17T09:51:38.919Z,22.00
2023-06-17T09:55:03.624Z,22.10
2023-06-17T09:58:26.815Z,22.10
2023-06-17T10:01:49.949Z,22.20
2023-06-17T10:05:12.172Z,22.20
2023-06-17T10:08:37.536Z,22.20
2023-06-17T10:12:02.150Z,22.30
2023-06-17T10:15:24.752Z,22.40
2023-06-17T10:18:50.010Z,22.50
2023-06-17T10:22:14.274Z,22.50
2023-06-17T10:25:38.344Z,22.70
2023-06-17T10:29:03.421Z,22.70
2023-06-17T10:32:26.071Z,22.70
2023-06-17T10:35:47.474Z,22.80
2023-06-17T10:39:11.368Z,23.00
2023-06-17T10:42:34.028Z,23.20
2023-06-17T10:45:56.576Z,23.30
2023-06-17T10:49:19.356Z,23.40
2023-06-17T10:52:41.225Z,23.50
2023-06-17T10:56:04.439Z,23.40
2023-06-17T10:59:27.621Z,23.40
2023-06-17T11:02:49.378Z,23.50
2023-06-17T11:06:11.729Z,23.70
2023-06-17T11:09:35.360Z,23.90
2023-06-17T11:12:56.779Z,24.10
2023-06-17T11:16:21.238Z,24.40
2023-06-17T11:19:42.641Z,24.50
2023-06-17T11:23:05.199Z,24.60
2023-06-17T11:26:27.476Z,24.60
2023-06-17T11:29:49.418Z,24.50
2023-06-17T11:33:12.006Z,24.40
2023-06-17T11:36:35.404Z,24.40
2023-06-17T11:39:59.360Z,24.40
2023-06-17T11:43:24.668Z,24.50
2023-06-17T11:46:46.425Z,24.60
2023-06-17T11:50:10.872Z,24.60
2023-06-17T11:53:35.810Z,24.60
2023-06-17T11:56:57.354Z,24.50
2023-06-17T12:00:19.490Z,24.40
2023-06-17T12:03:45.852Z,24.40
2023-06-17T12:07:09.423Z,24.50
2023-06-17T12:10:30.897Z,24.70
2023-06-17T12:13:52.539Z,25.00
2023-06-17T12:17:17.468Z,25.30
2023-06-17T12:20:39.292Z,25.60
2023-06-17T12:24:02.077Z,25.60
2023-06-17T12:27:30.176Z,25.90
2023-06-17T12:30:51.646Z,26.30
2023-06-17T12:34:13.055Z,27.10
2023-06-17T12:37:36.919Z,28.00
2023-06-17T12:41:00.273Z,28.10
2023-06-17T12:44:22.076Z,28.80
2023-06-17T12:47:43.665Z,29.10
2023-06-17T12:51:05.734Z,28.40
2023-06-17T12:54:27.195Z,27.90
2023-06-17T12:57:50.071Z,27.40
2023-06-17T13:01:11.756Z,26.70
2023-06-17T13:04:33.391Z,26.30
2023-06-17T13:07:55.064Z,26.00
2023-06-17T13:11:16.659Z,26.00
2023-06-17T13:14:39.427Z,25.70
2023-06-17T13:18:01.707Z,25.50
2023-06-17T13:21:23.616Z,25.30
2023-06-17T13:24:45.263Z,25.30
2023-06-17T13:28:07.683Z,25.10
2023-06-17T13:31:31.190Z,22.10
2023-06-17T13:34:52.697Z,20.50
2023-06-17T13:38:14.076Z,19.60
2023-06-17T13:41:35.277Z,19.70
2023-06-17T13:44:57.621Z,19.80
2023-06-17T13:48:20.304Z,20.00
2023-06-17T13:51:41.601Z,19.30
2023-06-17T13:55:03.233Z,18.60
2023-06-17T13:58:24.824Z,18.20
2023-06-17T14:01:46.297Z,18.40
2023-06-17T14:05:10.257Z,18.50
2023-06-17T14:08:31.576Z,18.50
2023-06-17T14:11:53.316Z,18.70
2023-06-17T14:15:14.607Z,18.90
2023-06-17T14:18:35.829Z,19.20
2023-06-17T14:22:01.899Z,19.30
2023-06-17T14:25:23.803Z,19.30
2023-06-17T14:28:46.057Z,19.40
2023-06-17T14:32:08.018Z,19.50
2023-06-17T14:35:29.515Z,19.70
2023-06-17T14:38:52.524Z,19.80
2023-06-17T14:42:13.754Z,19.70
2023-06-17T14:45:35.508Z,19.50
2023-06-17T14:48:57.058Z,19.70
2023-06-17T14:52:18.665Z,19.80
2023-06-17T14:55:41.542Z,20.10
2023-06-17T14:59:04.588Z,20.20
2023-06-17T15:02:43.757Z,20.40
2023-06-17T15:06:05.450Z,20.60
2023-06-17T15:09:28.178Z,20.50
2023-06-17T15:12:50.883Z,20.50
2023-06-17T15:16:12.546Z,20.70
2023-06-17T15:19:34.152Z,20.80
2023-06-17T15:22:55.567Z,20.90
2023-06-17T15:26:17.791Z,21.10
2023-06-17T15:29:41.954Z,21.40
2023-06-17T15:33:03.830Z,21.60
2023-06-17T15:36:25.508Z,21.60
2023-06-17T15:39:46.757Z,21.60
2023-06-17T15:43:08.150Z,21.70
2023-06-17T15:46:30.868Z,21.70
2023-06-17T15:49:52.118Z,21.60
2023-06-17T15:53:13.460Z,21.40
2023-06-17T15:56:37.474Z,21.30
2023-06-17T15:59:59.167Z,21.20
2023-06-17T16:03:29.552Z,21.20
2023-06-17T16:06:52.850Z,21.00
2023-06-17T16:10:16.103Z,20.90
2023-06-17T16:13:39.898Z,20.90
2023-06-17T16:17:02.887Z,21.00
2023-06-17T16:20:25.634Z,20.90
2023-06-17T16:23:47.093Z,20.80
2023-06-17T16:27:09.493Z,20.90
2023-06-17T16:30:30.840Z,20.90
2023-06-17T16:33:52.092Z,20.90
2023-06-17T16:37:16.779Z,21.00
2023-06-17T16:40:37.963Z,20.90
2023-06-17T16:43:59.379Z,20.90
2023-06-17T16:47:21.349Z,20.80
2023-06-17T16:50:43.060Z,20.90
2023-06-17T16:54:06.698Z,20.90
2023-06-17T16:57:28.791Z,20.80
2023-06-17T17:00:50.344Z,20.90
2023-06-17T17:04:13.749Z,20.80
2023-06-17T17:07:35.212Z,20.80
2023-06-17T17:10:57.877Z,20.70
2023-06-17T17:14:19.197Z,20.70
2023-06-17T17:17:41.070Z,20.70
2023-06-17T17:21:02.461Z,20.70
2023-06-17T17:24:24.109Z,20.80
2023-06-17T17:27:47.233Z,20.90
2023-06-17T17:31:08.905Z,21.10
2023-06-17T17:34:30.856Z,21.20
2023-06-17T17:37:52.317Z,21.30
2023-06-17T17:41:14.167Z,21.30
2023-06-17T17:44:37.179Z,21.30
2023-06-17T17:47:58.533Z,21.30
2023-06-17T17:51:19.788Z,21.30
2023-06-17T17:54:53.098Z,21.30
2023-06-17T17:58:22.370Z,21.30
2023-06-17T18:01:44.907Z,21.30
2023-06-17T18:05:07.414Z,21.20
2023-06-17T18:08:28.641Z,21.20
2023-06-17T18:11:49.844Z,21.10
2023-06-17T18:15:12.169Z,21.00
2023-06-17T18:18:35.102Z,21.00
2023-06-17T18:21:56.557Z,21.00
2023-06-17T18:25:18.072Z,20.90
2023-06-17T18:28:39.655Z,20.90
2023-06-17T18:32:01.099Z,20.90
2023-06-17T18:35:23.674Z,20.90
2023-06-17T18:38:45.159Z,20.90
2023-06-17T18:42:06.938Z,20.90
2023-06-17T18:45:28.427Z,20.90
2023-06-17T18:48:50.812Z,20.90
2023-06-17T18:52:13.741Z,20.90
2023-06-17T18:55:34.864Z,20.90
2023-06-17T18:58:56.521Z,20.90
2023-06-17T19:02:18.861Z,20.80
2023-06-17T19:05:40.684Z,20.80
2023-06-17T19:09:03.767Z,20.80
2023-06-17T19:12:25.368Z,20.70
2023-06-17T19:15:46.895Z,20.70
2023-06-17T19:19:08.559Z,20.60
2023-06-17T19:22:30.261Z,20.60
2023-06-17T19:25:52.851Z,20.50
2023-06-17T19:29:15.212Z,20.40
2023-06-17T19:32:37.104Z,20.30
2023-06-17T19:35:58.261Z,20.30
2023-06-17T19:39:19.831Z,20.20
2023-06-17T19:42:42.705Z,20.10
2023-06-17T19:46:04.701Z,20.00
2023-06-17T19:49:26.510Z,19.90
2023-06-17T19:52:47.873Z,19.90
2023-06-17T19:56:09.724Z,19.80
2023-06-17T19:59:32.530Z,19.70
2023-06-17T20:02:56.634Z,19.70
2023-06-17T20:06:18.608Z,19.60
2023-06-17T20:09:40.320Z,19.50
2023-06-17T20:13:02.003Z,19.40
2023-06-17T20:16:24.636Z,19.40
2023-06-17T20:19:46.890Z,19.30
2023-06-17T20:23:08.446Z,19.30
2023-06-17T20:26:29.922Z,19.20
2023-06-17T20:29:51.590Z,19.10
2023-06-17T20:33:14.119Z,19.00
2023-06-17T20:36:35.646Z,19.00
2023-06-17T20:39:56.878Z,19.00
2023-06-17T20:43:18.452Z,18.90
2023-06-17T20:46:39.962Z,18.80
2023-06-17T20:50:02.737Z,18.80
2023-06-17T20:53:24.564Z,18.70
2023-06-17T20:56:46.947Z,18.60
2023-06-17T21:00:09.662Z,18.60
2023-06-17T21:03:31.826Z,18.50
2023-06-17T21:06:54.578Z,18.50
2023-06-17T21:10:16.588Z,18.50
2023-06-17T21:13:37.860Z,18.40
2023-06-17T21:16:59.620Z,18.40
2023-06-17T21:20:21.670Z,18.30
2023-06-17T21:23:44.732Z,18.20
2023-06-17T21:27:10.316Z,18.20
2023-06-17T21:30:32.028Z,18.10
2023-06-17T21:33:54.330Z,18.10
2023-06-17T21:37:16.090Z,18.00
2023-06-17T21:40:38.770Z,18.00
2023-06-17T21:44:00.032Z,18.00
2023-06-17T21:47:21.675Z,18.00
2023-06-17T21:50:44.086Z,17.90
2023-06-17T21:54:05.919Z,17.90
2023-06-17T21:57:30.322Z,17.90
2023-06-17T22:00:52.073Z,17.80
2023-06-17T22:04:13.352Z,17.80
2023-06-17T22:07:34.794Z,17.70
2023-06-17T22:10:56.154Z,17.60
2023-06-17T22:14:19.091Z,17.50
2023-06-17T22:17:40.378Z,17.50
2023-06-17T22:21:01.707Z,17.50
2023-06-17T22:24:23.246Z,17.50
2023-06-17T22:27:46.415Z,17.50
2023-06-17T22:31:09.181Z,17.50
2023-06-17T22:34:30.808Z,17.50
2023-06-17T22:37:52.037Z,17.50
2023-06-17T22:41:13.604Z,17.40
2023-06-17T22:44:35.172Z,17.40
2023-06-17T22:47:57.829Z,17.40
2023-06-17T22:51:19.514Z,17.30
2023-06-17T22:54:40.668Z,17.30
2023-06-17T22:58:01.984Z,17.20
2023-06-17T23:01:24.009Z,17.10
2023-06-17T23:04:47.622Z,17.10
2023-06-17T23:08:08.945Z,17.10
2023-06-17T23:11:30.266Z,17.10
2023-06-17T23:14:51.476Z,17.10
2023-06-17T23:18:13.036Z,17.10
2023-06-17T23:21:37.775Z,17.00
2023-06-17T23:25:03.993Z,17.00
2023-06-17T23:28:28.635Z,17.00
2023-06-17T23:31:50.130Z,17.00
2023-06-17T23:35:11.676Z,16.90
2023-06-17T23:38:36.286Z,16.90
2023-06-17T23:41:57.643Z,16.80
2023-06-17T23:45:19.304Z,16.80
2023-06-17T23:48:40.624Z,16.80
2023-06-17T23:52:02.391Z,16.80
2023-06-17T23:55:25.414Z,16.70
2023-06-17T23:58:46.714Z,16.60
